Time;durP1;ratioP1;P1;durP2;ratioP2;P2;SDS_P1;SDS_P2;PMS_P1;PMS_P2;Temp;Humidity;BMP_temperature;BMP_pressure;BME280_temperature;BME280_humidity;BME280_pressure;Samples;Min_cycle;Max_cycle;Signal;HPM_P1;HPM_P2
2023/06/04 00:01:03;;;;;;;1.80;1.20;;;;;;;17.61;20.22;101587.72;5048545;28;20063;-64
2023/06/04 00:03:43;;;;;;;1.95;1.02;;;;;;;17.58;20.29;101588.91;5053643;28;20052;-65
2023/06/04 00:06:11;;;;;;;2.38;1.27;;;;;;;17.57;19.80;101583.50;5052279;28;20389;-65
2023/06/04 00:08:40;;;;;;;3.63;1.13;;;;;;;17.56;19.76;101588.22;5058379;28;20048;-65
2023/06/04 00:11:08;;;;;;;2.00;1.15;;;;;;;17.53;19.83;101584.88;5063599;28;20456;-65
2023/06/04 00:13:37;;;;;;;2.30;1.20;;;;;;;17.51;20.43;101584.16;5055597;28;20052;-65
2023/06/04 00:16:05;;;;;;;2.10;1.20;;;;;;;17.49;20.09;101584.31;5052506;28;20036;-64
2023/06/04 00:18:33;;;;;;;2.88;1.20;;;;;;;17.47;19.85;101586.41;5058336;28;20094;-64
2023/06/04 00:21:01;;;;;;;2.53;1.30;;;;;;;17.45;19.78;101587.59;5051061;28;20519;-64
2023/06/04 00:23:29;;;;;;;3.28;1.35;;;;;;;17.43;20.42;101584.97;5053946;28;20036;-63
2023/06/04 00:25:58;;;;;;;1.65;1.10;;;;;;;17.43;20.16;101582.22;5055708;28;20131;-64
2023/06/04 00:28:26;;;;;;;2.53;1.20;;;;;;;17.38;20.44;101577.19;5057272;28;20525;-64
2023/06/04 00:30:54;;;;;;;2.60;0.90;;;;;;;17.37;20.52;101577.34;5033505;28;20569;-64
2023/06/04 00:33:22;;;;;;;1.30;0.90;;;;;;;17.35;20.39;101576.63;5039529;28;20053;-64
2023/06/04 00:35:50;;;;;;;2.83;1.17;;;;;;;17.34;19.90;101577.66;5059447;28;20061;-64
2023/06/04 00:38:18;;;;;;;2.53;1.27;;;;;;;17.33;19.97;101570.38;5059508;28;20048;-64
2023/06/04 00:40:46;;;;;;;2.22;1.10;;;;;;;17.31;20.48;101570.56;5061403;28;20150;-65
2023/06/04 00:43:15;;;;;;;2.20;1.08;;;;;;;17.32;20.10;101579.69;5058941;28;20058;-63
2023/06/04 00:45:43;;;;;;;2.30;1.30;;;;;;;17.29;20.65;101578.16;5061835;28;20513;-64
2023/06/04 00:48:11;;;;;;;2.40;1.23;;;;;;;17.29;20.70;101580.03;5047318;28;20039;-64
2023/06/04 00:50:40;;;;;;;2.40;1.08;;;;;;;17.28;20.14;101581.94;5057713;28;20044;-64
2023/06/04 00:53:08;;;;;;;1.98;1.08;;;;;;;17.26;20.29;101581.22;5063363;28;20042;-63
2023/06/04 00:55:36;;;;;;;2.20;1.30;;;;;;;17.25;20.24;101578.59;5060190;28;20601;-64
2023/06/04 00:58:04;;;;;;;2.97;1.20;;;;;;;17.23;20.31;101576.03;5040346;28;20573;-64
2023/06/04 01:00:34;;;;;;;1.58;0.95;;;;;;;17.23;20.17;101581.56;5042236;28;20136;-64
2023/06/04 01:03:08;;;;;;;3.40;1.40;;;;;;;17.23;20.72;101581.56;5057872;28;20049;-64
2023/06/04 01:05:42;;;;;;;1.50;1.00;;;;;;;17.21;20.53;101579.97;5102154;22;20073;-65
2023/06/04 01:08:10;;;;;;;2.13;1.08;;;;;;;17.17;20.31;101582.19;5014325;28;20484;-65
2023/06/04 01:10:38;;;;;;;2.60;1.17;;;;;;;17.15;20.39;101575.09;5012166;28;20157;-65
2023/06/04 01:13:06;;;;;;;2.38;1.00;;;;;;;17.12;20.69;101579.03;5015404;28;20078;-65
2023/06/04 01:15:35;;;;;;;2.03;0.93;;;;;;;17.12;20.17;101579.03;5012572;28;20072;-65
2023/06/04 01:18:05;;;;;;;2.42;1.20;;;;;;;17.08;20.12;101574.84;5015635;28;20536;-65
2023/06/04 01:20:37;;;;;;;2.70;1.10;;;;;;;17.08;20.71;101573.97;5010994;28;20041;-65
2023/06/04 01:23:34;;;;;;;2.08;0.98;;;;;;;17.01;20.92;101576.50;5014449;28;20073;-65
2023/06/04 01:26:03;;;;;;;1.35;0.93;;;;;;;16.98;20.73;101577.72;4999278;28;20041;-66
2023/06/04 01:28:33;;;;;;;1.30;0.90;;;;;;;16.98;20.41;101579.63;5010948;28;20069;-65
2023/06/04 01:31:07;;;;;;;2.28;1.15;;;;;;;16.97;21.03;101587.03;5014656;28;20072;-65
2023/06/04 01:33:36;;;;;;;2.92;1.33;;;;;;;16.95;20.75;101591.81;5014504;28;20624;-65
2023/06/04 01:36:06;;;;;;;2.05;1.08;;;;;;;16.92;20.60;101578.28;5010986;28;20371;-66
2023/06/04 01:38:33;;;;;;;2.63;1.10;;;;;;;16.90;21.13;101591.44;5008037;28;20038;-65
2023/06/04 01:41:01;;;;;;;2.35;1.23;;;;;;;16.88;20.85;101576.88;5012112;28;20081;-66
2023/06/04 01:43:30;;;;;;;1.95;1.10;;;;;;;16.88;21.11;101590.72;4999952;28;20056;-65
2023/06/04 01:45:58;;;;;;;2.38;1.23;;;;;;;16.83;21.20;101589.44;4992795;28;20045;-66
2023/06/04 01:48:27;;;;;;;2.17;1.00;;;;;;;16.82;20.66;101588.59;5014992;28;20042;-66
2023/06/04 01:50:56;;;;;;;2.03;1.10;;;;;;;16.78;20.79;101581.63;4994908;28;20107;-66
2023/06/04 01:53:24;;;;;;;1.50;1.00;;;;;;;16.75;20.70;101587.44;4996490;28;20510;-65
2023/06/04 01:55:52;;;;;;;2.35;1.05;;;;;;;16.73;21.27;101591.44;4996609;28;20585;-65
2023/06/04 01:58:22;;;;;;;1.73;1.08;;;;;;;16.71;21.37;101594.34;5008150;28;20070;-65
2023/06/04 02:00:52;;;;;;;2.40;1.13;;;;;;;16.69;21.16;101584.44;4996264;28;20148;-65
2023/06/04 02:03:21;;;;;;;2.08;1.25;;;;;;;16.67;21.28;101595.66;4999955;28;20049;-67
2023/06/04 02:05:51;;;;;;;1.70;1.10;;;;;;;16.66;21.43;101591.16;4991251;28;20079;-65
2023/06/04 02:08:19;;;;;;;2.30;1.20;;;;;;;16.61;21.50;101591.63;4996287;28;20328;-66
2023/06/04 02:10:48;;;;;;;2.53;1.50;;;;;;;16.61;21.06;101591.63;5005921;28;20060;-66
2023/06/04 02:13:16;;;;;;;2.20;1.00;;;;;;;16.58;21.62;101586.41;4994426;28;20131;-65
2023/06/04 02:15:44;;;;;;;3.20;1.33;;;;;;;16.55;21.67;101583.97;5012624;28;20053;-65
2023/06/04 02:18:15;;;;;;;2.30;1.35;;;;;;;16.55;21.36;101581.22;4998095;28;20411;-66
2023/06/04 02:20:44;;;;;;;2.35;1.23;;;;;;;16.52;21.32;101583.41;5015507;28;20386;-65
2023/06/04 02:23:15;;;;;;;2.42;1.30;;;;;;;16.51;21.73;101584.44;4996057;28;20097;-65
2023/06/04 02:25:45;;;;;;;3.30;1.27;;;;;;;16.46;21.78;101584.91;5014069;28;20069;-65
2023/06/04 02:28:13;;;;;;;2.58;1.30;;;;;;;16.43;21.89;101585.22;5012106;28;20100;-65
2023/06/04 02:30:41;;;;;;;2.22;1.30;;;;;;;16.40;21.48;101585.53;5011967;28;20140;-66
2023/06/04 02:33:09;;;;;;;3.05;1.65;;;;;;;16.38;21.42;101587.56;4995263;28;20592;-65
2023/06/04 02:35:38;;;;;;;5.65;1.67;;;;;;;16.36;21.61;101591.50;5014302;28;20535;-65
2023/06/04 02:38:06;;;;;;;2.65;1.30;;;;;;;16.32;21.53;101590.09;5015230;28;20042;-66
2023/06/04 02:40:35;;;;;;;2.75;1.77;;;;;;;16.31;21.82;101586.47;4995215;28;20522;-65
2023/06/04 02:43:03;;;;;;;3.17;1.65;;;;;;;16.27;21.86;101593.31;5010691;28;20106;-65
2023/06/04 02:45:31;;;;;;;2.30;1.40;;;;;;;16.24;21.86;101599.16;4999196;28;20495;-65
2023/06/04 02:47:59;;;;;;;2.25;1.42;;;;;;;16.22;22.11;101585.50;5011016;28;20150;-65
2023/06/04 02:50:27;;;;;;;6.30;1.60;;;;;;;16.20;22.26;101593.06;5015127;28;20053;-65
2023/06/04 02:52:55;;;;;;;2.95;1.42;;;;;;;16.17;21.90;101590.59;4997981;28;20505;-65
2023/06/04 02:55:23;;;;;;;2.53;1.42;;;;;;;16.16;21.95;101593.50;4996587;28;20046;-65
2023/06/04 02:57:53;;;;;;;2.70;1.50;;;;;;;16.15;22.01;101600.03;5005068;28;20042;-66
2023/06/04 03:00:21;;;;;;;3.50;1.52;;;;;;;16.11;22.41;101587.53;5014113;28;20490;-65
2023/06/04 03:02:49;;;;;;;2.58;1.42;;;;;;;16.09;21.84;101593.22;4997297;28;20504;-66
2023/06/04 03:05:39;;;;;;;2.58;1.33;;;;;;;16.09;22.15;101593.22;5054935;22;20102;-82
2023/06/04 03:08:20;;;;;;;2.65;1.40;;;;;;;16.06;22.47;101600.94;5056684;28;20506;-82
2023/06/04 03:21:28;;;;;;;2.17;1.30;;;;;;;15.90;22.49;101604.38;4944872;28;20162;-81
2023/06/04 03:24:15;;;;;;;4.63;1.70;;;;;;;15.92;22.56;101606.97;5056617;28;20045;-82
2023/06/04 03:33:45;;;;;;;2.70;1.42;;;;;;;15.80;22.67;101601.63;5080279;28;20044;-81
2023/06/04 03:37:19;;;;;;;2.38;1.40;;;;;;;15.78;22.21;101600.91;5071677;28;20074;-83
2023/06/04 03:40:59;;;;;;;2.47;1.30;;;;;;;15.71;22.58;101599.78;5068770;28;20064;-81
2023/06/04 03:43:57;;;;;;;2.70;1.50;;;;;;;15.72;22.79;101600.63;4973065;28;20087;-81
2023/06/04 03:46:38;;;;;;;2.45;1.30;;;;;;;15.70;22.97;101598.03;4964480;28;20051;-63
2023/06/04 03:49:06;;;;;;;3.47;1.40;;;;;;;15.69;23.02;101601.81;4967924;28;20051;-63
2023/06/04 03:51:34;;;;;;;2.00;1.20;;;;;;;15.69;22.82;101599.03;4966718;28;20047;-63
2023/06/04 03:54:03;;;;;;;4.35;1.52;;;;;;;15.68;22.89;101607.47;4961972;28;20062;-63
2023/06/04 03:56:32;;;;;;;2.30;1.35;;;;;;;15.67;23.07;101605.75;4985881;28;20420;-63
2023/06/04 03:59:00;;;;;;;2.85;1.55;;;;;;;15.65;23.07;101614.19;4971719;28;20134;-63
2023/06/04 04:01:28;;;;;;;2.78;1.60;;;;;;;15.64;23.01;101611.56;4986775;28;20047;-63
2023/06/04 04:03:59;;;;;;;2.40;1.35;;;;;;;15.65;23.15;101605.03;4986157;28;20046;-62
2023/06/04 04:06:27;;;;;;;2.85;1.50;;;;;;;15.60;22.97;101613.72;4985807;28;20089;-63
2023/06/04 04:08:55;;;;;;;2.38;1.30;;;;;;;15.60;23.19;101607.34;4987324;28;20501;-64
2023/06/04 04:11:23;;;;;;;2.42;1.35;;;;;;;15.58;23.15;101604.75;4985557;28;20050;-63
2023/06/04 04:13:52;;;;;;;2.40;1.50;;;;;;;15.57;23.01;101608.53;4987386;28;20051;-63
2023/06/04 04:16:23;;;;;;;3.10;1.60;;;;;;;15.57;23.03;101605.78;4986192;28;20081;-63
2023/06/04 04:18:52;;;;;;;2.63;1.40;;;;;;;15.55;23.30;101602.28;4990094;28;20088;-63
2023/06/04 04:21:22;;;;;;;2.45;1.30;;;;;;;15.58;23.42;101598.38;4988869;28;20510;-62
2023/06/04 04:23:52;;;;;;;3.13;1.30;;;;;;;15.56;23.13;101600.41;4990233;28;20102;-63
2023/06/04 04:26:20;;;;;;;2.42;1.40;;;;;;;15.57;23.03;101613.19;4989737;28;20058;-63
2023/06/04 04:28:57;;;;;;;3.78;1.50;;;;;;;15.55;23.51;101604.16;4990473;28;20038;-62
2023/06/04 04:31:27;;;;;;;3.42;1.25;;;;;;;15.57;23.32;101613.19;4989505;28;20074;-63
2023/06/04 04:33:56;;;;;;;2.60;1.30;;;;;;;15.57;23.84;101611.28;4990517;28;20042;-63
2023/06/04 04:36:26;;;;;;;2.40;1.35;;;;;;;15.59;23.47;101614.75;4989525;28;20043;-64
2023/06/04 04:38:55;;;;;;;2.50;1.30;;;;;;;15.58;23.84;101613.03;4973999;28;20058;-64
2023/06/04 04:41:30;;;;;;;2.42;1.30;;;;;;;15.58;23.95;101613.03;4990671;28;20058;-64
2023/06/04 04:44:05;;;;;;;2.47;1.40;;;;;;;15.62;23.83;101613.59;4973474;28;20054;-64
2023/06/04 04:46:33;;;;;;;2.70;1.35;;;;;;;15.58;23.69;101610.28;4973056;28;20240;-64
2023/06/04 04:49:01;;;;;;;3.63;1.50;;;;;;;15.59;24.11;101608.38;4991341;28;20405;-63
2023/06/04 04:51:31;;;;;;;3.30;1.38;;;;;;;15.60;23.50;101607.34;4973136;28;20422;-64
2023/06/04 04:54:00;;;;;;;3.60;1.33;;;;;;;15.58;23.78;101612.16;4972643;28;20045;-64
2023/06/04 04:56:29;;;;;;;2.05;1.38;;;;;;;15.58;23.74;101606.66;4973012;28;20050;-64
2023/06/04 04:58:57;;;;;;;2.20;1.35;;;;;;;15.55;23.30;101605.03;4991363;28;20409;-64
2023/06/04 05:01:25;;;;;;;2.33;1.30;;;;;;;15.56;24.04;101609.53;4972180;28;20061;-64
2023/06/04 05:03:54;;;;;;;3.15;1.40;;;;;;;15.58;23.58;101614.91;4988871;28;20414;-62
2023/06/04 05:06:23;;;;;;;3.22;1.60;;;;;;;15.62;23.76;101611.69;4989228;28;20046;-63
2023/06/04 05:08:53;;;;;;;2.88;1.30;;;;;;;15.74;23.66;101595.84;4986814;28;20126;-62
2023/06/04 05:11:22;;;;;;;2.17;1.20;;;;;;;15.83;23.62;101598.59;4968786;28;20047;-63
2023/06/04 05:13:49;;;;;;;2.97;1.80;;;;;;;15.98;24.21;101606.38;4971789;28;20042;-63
2023/06/04 05:16:20;;;;;;;2.45;1.30;;;;;;;16.15;23.73;101605.56;4969159;28;20506;-63
2023/06/04 05:18:51;;;;;;;2.63;1.40;;;;;;;16.33;23.92;101612.00;4970171;28;20053;-63
2023/06/04 05:21:22;;;;;;;2.80;1.30;;;;;;;16.53;23.50;101610.91;4969978;28;20047;-63
2023/06/04 05:23:57;;;;;;;2.25;1.30;;;;;;;16.76;23.56;101610.44;4970759;28;20506;-65
2023/06/04 05:26:30;;;;;;;2.88;1.58;;;;;;;16.93;23.28;101610.44;4974972;28;20101;-63
2023/06/04 05:29:04;;;;;;;2.57;1.30;;;;;;;17.14;23.36;101607.41;4969745;28;20689;-63
2023/06/04 05:31:36;;;;;;;2.38;1.40;;;;;;;17.35;22.74;101618.13;4968898;28;20054;-64
2023/06/04 05:34:06;;;;;;;3.15;1.33;;;;;;;17.53;22.57;101616.19;4973292;28;20303;-64
2023/06/04 05:36:39;;;;;;;2.10;1.30;;;;;;;17.69;22.66;101613.53;4988350;28;20451;-63
2023/06/04 05:39:09;;;;;;;2.70;1.40;;;;;;;17.87;22.81;101621.84;4988985;28;20509;-63
2023/06/04 05:42:07;;;;;;;2.35;1.30;;;;;;;17.96;22.75;101612.53;4976438;28;20057;-63
2023/06/04 05:44:35;;;;;;;2.35;1.33;;;;;;;18.10;22.64;101616.59;4972805;28;20356;-63
2023/06/04 05:47:03;;;;;;;2.83;1.40;;;;;;;18.20;22.58;101613.69;4971853;28;20134;-63
2023/06/04 05:49:34;;;;;;;1.88;1.20;;;;;;;18.30;21.91;101615.31;4989000;28;20137;-63
2023/06/04 05:52:03;;;;;;;3.00;1.20;;;;;;;18.37;22.17;101629.34;4972375;28;20051;-63
2023/06/04 05:54:32;;;;;;;2.60;1.60;;;;;;;18.45;21.91;101623.84;4990102;28;20666;-63
2023/06/04 05:57:01;;;;;;;2.67;1.40;;;;;;;18.49;21.80;101623.38;4971025;28;20050;-63
2023/06/04 05:59:29;;;;;;;2.80;1.25;;;;;;;18.55;22.28;101623.75;4972675;28;20042;-63
2023/06/04 06:01:58;;;;;;;2.78;1.30;;;;;;;18.60;22.31;101630.50;4972091;28;20046;-63
2023/06/04 06:04:26;;;;;;;2.45;1.50;;;;;;;18.65;22.18;101625.31;4988876;28;20046;-64
2023/06/04 06:06:55;;;;;;;2.13;1.30;;;;;;;18.70;21.80;101630.38;4972130;28;20057;-64
2023/06/04 06:09:23;;;;;;;2.53;1.40;;;;;;;18.76;21.64;101636.09;4989816;28;20050;-65
2023/06/04 06:11:52;;;;;;;2.78;1.40;;;;;;;18.84;21.84;101638.91;4988288;28;20050;-63
2023/06/04 06:14:20;;;;;;;2.38;1.40;;;;;;;18.88;22.06;101634.72;4988654;28;20585;-62
2023/06/04 06:16:48;;;;;;;2.15;1.17;;;;;;;18.94;22.44;101635.97;4989941;28;20054;-54
2023/06/04 06:19:16;;;;;;;3.20;1.40;;;;;;;19.00;21.82;101640.84;4983902;28;20038;-54
2023/06/04 06:21:45;;;;;;;2.45;1.25;;;;;;;19.08;22.21;101642.75;4993195;28;20049;-53
2023/06/04 06:24:13;;;;;;;2.38;1.20;;;;;;;19.15;21.65;101643.78;4988334;28;20057;-54
2023/06/04 06:26:42;;;;;;;1.63;1.10;;;;;;;19.21;22.00;101638.44;4992724;28;20058;-54
2023/06/04 06:29:13;;;;;;;1.75;1.20;;;;;;;19.32;22.15;101647.50;4988070;28;20045;-54
2023/06/04 06:31:42;;;;;;;2.60;1.15;;;;;;;19.36;21.54;101648.91;4968756;28;20308;-56
2023/06/04 06:34:10;;;;;;;2.47;1.30;;;;;;;19.44;21.85;101646.13;4986863;28;20133;-54
2023/06/04 06:36:38;;;;;;;3.63;1.75;;;;;;;19.49;21.75;101652.00;4980202;28;20046;-56
2023/06/04 06:39:06;;;;;;;2.25;1.38;;;;;;;19.55;21.86;101654.06;4988594;28;20061;-55
2023/06/04 06:41:34;;;;;;;3.30;1.33;;;;;;;19.62;21.65;101658.75;4982190;28;20072;-52
2023/06/04 06:44:03;;;;;;;2.50;1.60;;;;;;;19.70;21.29;101660.69;4970936;28;20042;-57
2023/06/04 06:46:33;;;;;;;3.33;1.35;;;;;;;19.78;21.78;101663.47;4987676;28;20061;-51
2023/06/04 06:49:01;;;;;;;2.78;1.40;;;;;;;19.83;21.72;101661.00;4986010;28;20141;-55
2023/06/04 06:51:28;;;;;;;2.42;1.13;;;;;;;19.90;21.59;101664.81;4984271;28;20488;-53
2023/06/04 06:53:56;;;;;;;2.88;1.27;;;;;;;19.98;21.59;101667.59;4989616;28;20125;-57
2023/06/04 06:56:24;;;;;;;3.05;1.58;;;;;;;20.06;21.55;101668.63;4987989;28;20069;-54
2023/06/04 06:58:52;;;;;;;2.47;1.40;;;;;;;20.12;21.05;101660.44;4987060;28;20042;-52
2023/06/04 07:01:20;;;;;;;3.13;1.73;;;;;;;20.19;21.34;101649.50;4985235;28;20066;-52
2023/06/04 07:03:50;;;;;;;3.63;1.60;;;;;;;20.27;20.93;101664.25;4987428;28;20374;-52
2023/06/04 07:06:18;;;;;;;2.75;1.50;;;;;;;20.31;21.26;101661.97;4984548;28;20077;-53
2023/06/04 07:08:48;;;;;;;2.70;1.60;;;;;;;20.38;20.68;101662.97;4987376;28;20042;-53
2023/06/04 07:11:16;;;;;;;4.18;1.58;;;;;;;20.44;21.12;101665.06;4984477;28;20057;-54
2023/06/04 07:13:44;;;;;;;2.80;1.50;;;;;;;20.50;20.68;101664.34;4995347;28;20115;-56
2023/06/04 07:16:12;;;;;;;2.88;1.70;;;;;;;20.56;20.63;101665.50;4981418;28;20046;-51
2023/06/04 07:18:40;;;;;;;3.83;1.95;;;;;;;20.63;20.76;101666.56;4988429;28;20054;-55
2023/06/04 07:21:09;;;;;;;3.20;1.63;;;;;;;20.72;20.42;101676.59;4987962;28;20077;-53
2023/06/04 07:23:37;;;;;;;3.97;1.75;;;;;;;20.77;20.58;101668.59;4986169;28;20056;-52
2023/06/04 07:26:05;;;;;;;3.25;1.77;;;;;;;20.85;20.89;101668.53;4987682;28;20047;-54
2023/06/04 07:28:33;;;;;;;3.75;1.83;;;;;;;20.92;20.78;101668.69;4988207;28;20121;-54
2023/06/04 07:31:01;;;;;;;4.32;2.05;;;;;;;21.03;20.42;101676.59;4987047;28;20129;-54
2023/06/04 07:33:29;;;;;;;2.75;1.77;;;;;;;21.10;20.73;101672.91;4987739;28;20065;-51
2023/06/04 07:35:57;;;;;;;3.83;1.70;;;;;;;21.20;20.26;101677.34;4987228;28;20042;-54
2023/06/04 07:38:27;;;;;;;2.72;1.80;;;;;;;21.31;20.61;101675.03;4989202;28;20077;-57
2023/06/04 07:40:55;;;;;;;3.17;1.70;;;;;;;21.38;19.98;101667.69;4984915;28;20049;-59
2023/06/04 07:43:22;;;;;;;3.20;1.92;;;;;;;21.47;20.33;101665.69;4983789;28;20054;-54
2023/06/04 07:45:50;;;;;;;3.22;1.77;;;;;;;21.56;20.27;101669.28;4986608;28;20065;-56
2023/06/04 07:48:18;;;;;;;3.67;2.30;;;;;;;21.64;19.86;101664.50;4988511;28;20050;-55
2023/06/04 07:50:46;;;;;;;2.78;1.80;;;;;;;21.73;19.63;101668.94;4982122;28;20074;-55
2023/06/04 07:53:14;;;;;;;2.95;2.10;;;;;;;21.81;19.90;101662.44;4991078;28;20042;-56
2023/06/04 07:55:43;;;;;;;3.53;2.10;;;;;;;21.91;19.65;101663.06;4990443;28;20054;-58
2023/06/04 07:58:11;;;;;;;4.03;2.00;;;;;;;21.97;19.71;101672.59;4973426;28;20488;-57
2023/06/04 08:00:39;;;;;;;4.28;2.00;;;;;;;22.04;19.69;101663.25;4990315;28;20142;-55
2023/06/04 08:03:07;;;;;;;3.33;2.08;;;;;;;22.12;19.53;101665.09;4992541;28;20064;-55
2023/06/04 08:05:35;;;;;;;2.80;1.98;;;;;;;22.19;19.41;101666.06;4987013;28;20050;-60
2023/06/04 08:08:04;;;;;;;4.38;2.03;;;;;;;22.27;19.62;101661.25;4990762;28;20089;-56
2023/06/04 08:10:32;;;;;;;3.00;1.70;;;;;;;22.34;19.46;101669.75;4990302;28;20068;-55
2023/06/04 08:13:01;;;;;;;3.50;2.25;;;;;;;22.43;19.50;101665.78;4991118;28;20134;-54
2023/06/04 08:15:29;;;;;;;3.30;2.13;;;;;;;22.48;19.37;101662.41;4988032;28;20085;-51
2023/06/04 08:17:57;;;;;;;3.78;2.28;;;;;;;22.53;19.34;101666.38;4991634;28;20085;-55
2023/06/04 08:20:25;;;;;;;2.63;1.75;;;;;;;22.59;19.55;101667.56;4991034;28;20105;-55
2023/06/04 08:22:54;;;;;;;3.60;1.95;;;;;;;22.66;19.04;101665.72;4991794;28;20093;-54
2023/06/04 08:25:22;;;;;;;3.10;1.80;;;;;;;22.72;18.52;101669.63;4990265;28;20056;-54
2023/06/04 08:27:50;;;;;;;3.00;1.90;;;;;;;22.77;18.39;101667.97;4990888;28;20074;-52
2023/06/04 08:30:19;;;;;;;2.97;1.63;;;;;;;22.85;18.55;101676.25;4978322;28;20607;-54
2023/06/04 08:32:48;;;;;;;3.47;1.73;;;;;;;22.88;18.43;101670.28;4989460;28;20050;-55
2023/06/04 08:35:16;;;;;;;2.70;1.67;;;;;;;22.94;18.53;101669.47;4990840;28;20046;-55
2023/06/04 08:37:44;;;;;;;2.95;1.73;;;;;;;23.01;18.39;101680.72;4991533;28;20109;-51
2023/06/04 08:40:12;;;;;;;2.97;1.80;;;;;;;23.06;17.88;101675.44;4990652;28;20042;-51
2023/06/04 08:42:44;;;;;;;3.70;1.80;;;;;;;23.11;17.61;101675.69;4988377;28;20435;-54
2023/06/04 08:45:13;;;;;;;3.77;1.60;;;;;;;23.12;18.00;101676.56;4985370;28;20058;-53
2023/06/04 08:47:48;;;;;;;3.40;1.65;;;;;;;23.19;17.19;101677.53;4986427;28;20042;-53
2023/06/04 08:50:19;;;;;;;2.70;1.60;;;;;;;23.22;17.59;101674.34;4989999;28;20046;-55
2023/06/04 08:52:48;;;;;;;2.88;1.75;;;;;;;23.23;17.45;101674.16;4991226;28;20047;-54
2023/06/04 08:55:16;;;;;;;3.35;2.03;;;;;;;23.26;17.46;101684.03;4990519;28;20046;-55
2023/06/04 08:57:46;;;;;;;3.17;1.85;;;;;;;23.31;17.33;101678.75;4992975;28;20417;-60
2023/06/04 09:00:15;;;;;;;3.55;1.80;;;;;;;23.32;17.28;101677.69;4989570;28;20046;-56
2023/06/04 09:02:46;;;;;;;3.50;1.77;;;;;;;23.37;16.90;101675.16;4990830;28;20133;-55
2023/06/04 09:05:19;;;;;;;2.95;1.80;;;;;;;23.41;16.94;101678.44;4989758;28;20117;-56
2023/06/04 09:07:49;;;;;;;4.28;1.80;;;;;;;23.41;17.29;101675.63;4980431;28;20046;-56
2023/06/04 09:10:22;;;;;;;3.70;2.15;;;;;;;23.44;16.61;101678.00;4989709;28;20051;-54
2023/06/04 09:12:52;;;;;;;3.33;1.83;;;;;;;23.44;16.78;101673.28;4986546;28;20034;-54
2023/06/04 09:15:20;;;;;;;3.70;1.88;;;;;;;23.45;16.83;101675.03;4989414;28;20150;-57
2023/06/04 09:17:49;;;;;;;2.70;1.50;;;;;;;23.48;16.72;101683.00;4990323;28;20096;-57
2023/06/04 09:20:20;;;;;;;2.75;1.60;;;;;;;23.52;16.54;101687.13;4986685;28;20077;-54
2023/06/04 09:22:48;;;;;;;2.37;1.63;;;;;;;23.50;16.69;101683.66;4988828;28;20053;-56
2023/06/04 09:25:25;;;;;;;2.95;1.67;;;;;;;23.57;16.52;101680.94;4971323;28;20503;-53
2023/06/04 09:27:55;;;;;;;3.22;1.60;;;;;;;23.55;16.74;101677.47;4990767;28;20634;-57
2023/06/04 09:30:23;;;;;;;2.83;1.55;;;;;;;23.59;16.96;101685.25;4989323;28;20085;-54
2023/06/04 09:32:54;;;;;;;2.65;1.58;;;;;;;23.65;17.00;101675.22;4989234;28;20386;-54
2023/06/04 09:35:22;;;;;;;2.53;1.50;;;;;;;23.63;16.85;101671.75;4987067;28;20096;-54
2023/06/04 09:37:55;;;;;;;2.20;1.40;;;;;;;23.72;16.49;101679.81;4990206;28;20066;-54
2023/06/04 09:40:23;;;;;;;3.03;1.60;;;;;;;23.73;16.71;101681.53;4988839;28;20050;-57
2023/06/04 09:42:55;;;;;;;2.97;1.65;;;;;;;23.78;16.67;101683.75;4990504;28;20504;-57
2023/06/04 09:45:31;;;;;;;2.28;1.45;;;;;;;23.82;16.45;101673.91;4989925;28;20054;-55
2023/06/04 09:48:00;;;;;;;2.08;1.40;;;;;;;23.85;16.45;101683.78;4989534;28;20053;-57
2023/06/04 09:50:30;;;;;;;3.10;1.60;;;;;;;23.87;16.40;101676.94;4988897;28;20046;-56
2023/06/04 09:52:58;;;;;;;3.38;1.73;;;;;;;23.90;16.17;101682.13;4989974;28;20044;-56
2023/06/04 09:55:26;;;;;;;3.80;1.85;;;;;;;23.93;16.35;101683.66;4985041;28;20270;-57
2023/06/04 09:57:54;;;;;;;3.38;1.80;;;;;;;23.96;16.32;101681.31;4972198;28;20126;-54
2023/06/04 10:00:24;;;;;;;3.28;1.70;;;;;;;24.00;16.49;101684.56;4986443;28;20070;-56
2023/06/04 10:02:57;;;;;;;3.60;1.85;;;;;;;24.04;16.43;101681.16;4990244;28;20498;-56
2023/06/04 10:05:28;;;;;;;2.78;1.70;;;;;;;24.05;16.28;101682.91;4988758;28;20465;-56
2023/06/04 10:08:00;;;;;;;3.10;1.60;;;;;;;24.06;16.20;101676.25;4989608;28;20049;-57
2023/06/04 10:10:30;;;;;;;3.13;1.50;;;;;;;24.06;16.06;101683.75;4989037;28;20069;-54
2023/06/04 10:13:04;;;;;;;2.78;1.63;;;;;;;24.11;15.86;101681.22;4988994;28;20530;-54
2023/06/04 10:15:34;;;;;;;2.97;1.65;;;;;;;24.11;16.03;101684.00;4988446;28;20518;-54
2023/06/04 10:18:03;;;;;;;3.50;1.63;;;;;;;24.14;15.80;101678.88;4989717;28;20046;-55
2023/06/04 10:20:33;;;;;;;2.92;1.60;;;;;;;24.16;15.91;101675.84;4989106;28;20062;-56
2023/06/04 10:23:01;;;;;;;2.60;1.60;;;;;;;24.17;15.97;101674.78;4989464;28;20088;-60
2023/06/04 10:25:30;;;;;;;3.65;1.80;;;;;;;24.20;16.08;101667.94;4984322;28;20054;-60
2023/06/04 10:27:58;;;;;;;2.42;1.60;;;;;;;24.23;16.07;101668.41;4989867;28;20046;-58
2023/06/04 10:30:26;;;;;;;2.58;1.73;;;;;;;24.26;16.07;101664.31;4987471;28;20141;-58
2023/06/04 10:32:54;;;;;;;3.95;1.90;;;;;;;24.30;16.11;101668.44;4988252;28;20057;-59
2023/06/04 10:35:32;;;;;;;3.15;1.90;;;;;;;24.36;15.79;101656.44;4988222;28;20680;-60
2023/06/04 10:38:08;;;;;;;4.68;1.80;;;;;;;24.40;15.81;101655.81;4989405;28;20450;-58
2023/06/04 10:40:37;;;;;;;2.90;1.70;;;;;;;24.40;16.06;101654.97;4988159;28;20105;-60
2023/06/04 10:43:08;;;;;;;3.10;1.80;;;;;;;24.46;15.55;101657.81;4989571;28;20047;-60
2023/06/04 10:45:36;;;;;;;3.58;2.00;;;;;;;24.46;15.98;101659.75;4985886;28;20050;-57
2023/06/04 10:48:06;;;;;;;3.92;2.92;;;;;;;24.55;16.18;101664.09;4989216;28;20280;-58
2023/06/04 10:50:48;;;;;;;4.18;2.40;;;;;;;24.61;15.92;101659.59;4987892;28;20065;-61
2023/06/04 10:53:18;;;;;;;3.72;2.13;;;;;;;24.63;15.91;101665.84;4981690;28;20428;-59
2023/06/04 10:55:47;;;;;;;3.38;1.90;;;;;;;24.69;15.92;101663.09;4987834;28;20081;-58
2023/06/04 10:58:15;;;;;;;3.03;1.80;;;;;;;24.72;15.89;101664.59;4989396;28;20049;-58
2023/06/04 11:00:46;;;;;;;3.08;1.70;;;;;;;24.76;15.91;101658.38;4987743;28;20478;-58
2023/06/04 11:03:14;;;;;;;3.75;2.10;;;;;;;24.80;16.16;101656.03;4988786;28;20050;-60
2023/06/04 11:05:45;;;;;;;8.10;5.32;;;;;;;24.87;16.02;101651.31;4988055;28;20046;-60
2023/06/04 11:08:14;;;;;;;5.70;3.50;;;;;;;24.92;16.25;101661.88;4989001;28;20066;-58
2023/06/04 11:10:44;;;;;;;4.47;2.70;;;;;;;24.97;15.79;101663.03;4987362;28;20081;-57
2023/06/04 11:13:13;;;;;;;3.40;2.08;;;;;;;25.00;15.67;101656.97;4988379;28;20105;-60
2023/06/04 11:15:42;;;;;;;3.33;1.90;;;;;;;25.05;15.47;101654.44;4987425;28;20461;-62
2023/06/04 11:18:16;;;;;;;5.28;2.67;;;;;;;25.10;15.29;101649.03;4988128;28;20046;-60
2023/06/04 11:20:47;;;;;;;2.70;1.60;;;;;;;25.13;15.77;101657.03;4987105;28;20054;-58
2023/06/04 11:23:16;;;;;;;2.80;1.80;;;;;;;25.13;15.70;101643.03;4988821;28;20484;-59
2023/06/04 11:25:45;;;;;;;3.80;2.03;;;;;;;25.19;15.52;101641.31;4986406;28;20137;-59
2023/06/04 11:28:18;;;;;;;3.00;1.80;;;;;;;25.25;15.60;101646.91;4971126;28;20306;-57
2023/06/04 11:30:57;;;;;;;3.47;1.83;;;;;;;25.29;15.15;101652.97;4987081;28;20510;-59
2023/06/04 11:33:25;;;;;;;3.50;1.73;;;;;;;25.28;15.32;101645.63;4988012;28;20049;-59
2023/06/04 11:35:55;;;;;;;2.83;1.80;;;;;;;25.33;15.11;101639.38;4987717;28;20244;-58
2023/06/04 11:38:23;;;;;;;3.60;1.77;;;;;;;25.33;15.28;101643.03;4988073;28;20071;-57
2023/06/04 11:40:59;;;;;;;2.80;1.80;;;;;;;25.38;14.89;101651.69;4987721;28;20527;-59
2023/06/04 11:43:27;;;;;;;3.80;1.95;;;;;;;25.36;15.19;101645.44;4988081;28;20129;-60
2023/06/04 11:45:56;;;;;;;3.67;1.92;;;;;;;25.36;15.12;101647.38;4987533;28;20085;-60
2023/06/04 11:48:24;;;;;;;3.03;1.77;;;;;;;25.38;15.03;101648.03;4988102;28;20437;-60
2023/06/04 11:50:52;;;;;;;3.45;1.98;;;;;;;25.37;14.81;101649.09;4987246;28;20051;-60
2023/06/04 11:53:21;;;;;;;2.83;1.90;;;;;;;25.40;14.84;101640.25;4987534;28;20038;-59
2023/06/04 11:55:49;;;;;;;3.00;1.80;;;;;;;25.37;14.85;101635.97;4986738;28;20134;-60